createdAt,value
2022-12-25T00:00:31.437Z,100934.03
2022-12-25T00:03:06.054Z,100939.84
2022-12-25T00:05:40.709Z,100934.59
2022-12-25T00:08:15.289Z,100921.53
2022-12-25T00:10:58.752Z,100944.78
2022-12-25T00:13:33.457Z,100933.59
2022-12-25T00:16:09.341Z,100937.75
2022-12-25T00:18:44.268Z,100938.94
2022-12-25T00:21:19.206Z,100936.16
2022-12-25T00:23:55.758Z,100941.00
2022-12-25T00:26:31.425Z,100947.97
2022-12-25T00:29:06.307Z,100949.50
2022-12-25T00:31:40.622Z,100963.81
2022-12-25T00:34:15.133Z,100975.13
2022-12-25T00:36:51.631Z,100971.97
2022-12-25T00:39:26.379Z,100983.63
2022-12-25T00:42:20.277Z,100992.25
2022-12-25T00:44:54.846Z,100975.47
2022-12-25T00:47:29.112Z,100986.47
2022-12-25T00:50:03.604Z,100991.47
2022-12-25T00:52:37.850Z,100985.34
2022-12-25T00:55:12.249Z,100995.16
2022-12-25T00:57:47.862Z,100997.91
2022-12-25T01:00:25.006Z,100995.28
2022-12-25T01:02:59.316Z,100999.81
2022-12-25T01:05:34.044Z,101019.87
2022-12-25T01:08:08.246Z,101023.87
2022-12-25T01:10:41.701Z,101019.19
2022-12-25T01:13:17.269Z,101009.59
2022-12-25T01:15:52.215Z,100996.72
2022-12-25T01:18:27.292Z,101003.63
2022-12-25T01:21:07.454Z,101009.72
2022-12-25T01:23:41.926Z,101012.75
2022-12-25T01:26:18.447Z,101011.91
2022-12-25T01:28:54.867Z,101011.09
2022-12-25T01:31:29.597Z,101001.22
2022-12-25T01:34:03.974Z,101014.19
2022-12-25T01:36:38.632Z,101009.06
2022-12-25T01:39:12.884Z,101005.50
2022-12-25T01:41:48.242Z,101004.56
2022-12-25T01:44:59.451Z,101012.50
2022-12-25T01:47:35.457Z,101008.09
2022-12-25T01:50:10.601Z,100999.50
2022-12-25T01:52:45.567Z,100996.63
2022-12-25T01:55:19.853Z,101004.72
2022-12-25T01:57:54.602Z,101014.97
2022-12-25T02:00:29.042Z,101018.38
2022-12-25T02:03:06.200Z,101021.00
2022-12-25T02:05:41.114Z,101016.72
2022-12-25T02:08:18.877Z,101014.00
2022-12-25T02:10:53.107Z,101008.38
2022-12-25T02:13:27.650Z,101011.09
2022-12-25T02:16:11.182Z,101024.75
2022-12-25T02:18:53.133Z,101023.28
2022-12-25T02:21:54.474Z,101012.91
2022-12-25T02:24:53.671Z,101010.22
2022-12-25T02:27:53.849Z,101022.59
2022-12-25T02:30:35.525Z,101016.00
2022-12-25T02:33:34.402Z,101022.12
2022-12-25T02:36:12.646Z,101020.53
2022-12-25T02:39:07.549Z,101028.22
2022-12-25T02:41:46.288Z,101024.09
2022-12-25T02:44:43.850Z,101027.84
2022-12-25T02:47:37.224Z,101030.44
2022-12-25T02:50:29.992Z,101039.09
2022-12-25T02:53:22.858Z,101046.47
2022-12-25T02:56:15.579Z,101040.53
2022-12-25T02:59:08.640Z,101045.81
2022-12-25T03:02:03.917Z,101058.41
2022-12-25T03:04:57.895Z,101063.34
2022-12-25T03:07:34.016Z,101061.38
2022-12-25T03:10:30.886Z,101069.31
2022-12-25T03:13:11.392Z,101064.78
2022-12-25T03:16:03.736Z,101067.03
2022-12-25T03:18:39.470Z,101070.06
2022-12-25T03:21:31.592Z,101071.91
2022-12-25T03:24:24.167Z,101067.19
2022-12-25T03:26:58.883Z,101066.16
2022-12-25T03:29:52.348Z,101077.72
2022-12-25T03:32:38.924Z,101070.25
2022-12-25T03:35:23.766Z,101077.53
2022-12-25T03:38:30.886Z,101091.56
2022-12-25T03:41:30.324Z,101067.06
2022-12-25T03:44:29.469Z,101051.81
2022-12-25T03:47:25.978Z,101066.97
2022-12-25T03:50:24.726Z,101064.97
2022-12-25T03:53:20.421Z,101060.44
2022-12-25T03:56:13.934Z,101067.13
2022-12-25T03:59:11.128Z,101078.78
2022-12-25T04:02:03.283Z,101080.78
2022-12-25T04:04:55.491Z,101074.66
2022-12-25T04:07:47.153Z,101073.41
2022-12-25T04:10:40.687Z,101071.44
2022-12-25T04:13:32.513Z,101069.62
2022-12-25T04:16:24.103Z,101073.28
2022-12-25T04:19:15.759Z,101086.09
2022-12-25T04:22:07.989Z,101082.16
2022-12-25T04:25:11.346Z,101087.97
2022-12-25T04:28:04.815Z,101093.38
2022-12-25T04:30:56.546Z,101072.25
2022-12-25T04:33:48.883Z,101067.22
2022-12-25T04:36:23.365Z,101067.41
2022-12-25T04:38:57.768Z,101060.59
2022-12-25T04:41:31.885Z,101069.22
2022-12-25T04:44:07.758Z,101072.34
2022-12-25T04:46:42.031Z,101073.56
2022-12-25T04:49:16.538Z,101072.06
2022-12-25T04:51:50.816Z,101064.25
2022-12-25T04:54:25.276Z,101067.22
2022-12-25T04:56:59.375Z,101066.44
2022-12-25T04:59:35.168Z,101071.22
2022-12-25T05:02:09.491Z,101069.56
2022-12-25T05:04:44.083Z,101056.81
2022-12-25T05:07:18.199Z,101058.28
2022-12-25T05:09:52.726Z,101065.03
2022-12-25T05:12:26.931Z,101064.59
2022-12-25T05:15:02.724Z,101063.94
2022-12-25T05:17:37.591Z,101079.94
2022-12-25T05:20:12.469Z,101076.75
2022-12-25T05:22:46.649Z,101078.91
2022-12-25T05:25:21.056Z,101076.56
2022-12-25T05:27:55.327Z,101075.13
2022-12-25T05:30:31.206Z,101079.91
2022-12-25T05:33:05.510Z,101068.13
2022-12-25T05:35:40.873Z,101073.59
2022-12-25T05:38:15.445Z,101071.41
2022-12-25T05:40:52.565Z,101069.75
2022-12-25T05:43:27.295Z,101069.59
2022-12-25T05:46:07.641Z,101084.06
2022-12-25T05:48:41.939Z,101072.69
2022-12-25T05:51:16.442Z,101067.34
2022-12-25T05:53:50.582Z,101070.31
2022-12-25T05:56:25.026Z,101070.41
2022-12-25T05:58:59.303Z,101077.13
2022-12-25T06:01:35.288Z,101074.88
2022-12-25T06:04:12.738Z,101069.84
2022-12-25T06:06:47.363Z,101074.59
2022-12-25T06:09:22.225Z,101083.19
2022-12-25T06:11:56.308Z,101081.53
2022-12-25T06:14:30.810Z,101083.75
2022-12-25T06:17:06.409Z,101088.16
2022-12-25T06:19:41.091Z,101092.28
2022-12-25T06:22:15.250Z,101087.75
2022-12-25T06:24:49.786Z,101092.00
2022-12-25T06:27:23.847Z,101097.00
2022-12-25T06:29:58.427Z,101101.09
2022-12-25T06:32:34.049Z,101095.94
2022-12-25T06:35:09.266Z,101102.66
2022-12-25T06:37:43.384Z,101115.09
2022-12-25T06:40:18.493Z,101120.53
2022-12-25T06:42:53.129Z,101125.31
2022-12-25T06:45:27.837Z,101124.09
2022-12-25T06:48:03.508Z,101118.09
2022-12-25T06:50:38.033Z,101137.47
2022-12-25T06:53:12.159Z,101140.91
2022-12-25T06:55:46.525Z,101149.75
2022-12-25T06:58:20.744Z,101149.34
2022-12-25T07:00:55.241Z,101146.09
2022-12-25T07:03:31.601Z,101155.75
2022-12-25T07:06:06.217Z,101147.91
2022-12-25T07:08:40.425Z,101144.84
2022-12-25T07:11:15.030Z,101147.12
2022-12-25T07:13:49.401Z,101153.31
2022-12-25T07:16:24.119Z,101145.44
2022-12-25T07:19:02.002Z,101151.72
2022-12-25T07:21:36.399Z,101157.97
2022-12-25T07:24:10.904Z,101172.69
2022-12-25T07:26:45.366Z,101167.97
2022-12-25T07:29:19.896Z,101175.78
2022-12-25T07:31:54.470Z,101165.69
2022-12-25T07:34:30.093Z,101172.25
2022-12-25T07:37:04.605Z,101182.91
2022-12-25T07:39:38.887Z,101193.34
2022-12-25T07:42:14.336Z,101201.00
2022-12-25T07:44:48.413Z,101199.69
2022-12-25T07:47:22.919Z,101187.44
2022-12-25T07:49:58.470Z,101191.00
2022-12-25T07:52:38.048Z,101195.09
2022-12-25T07:55:16.174Z,101196.81
2022-12-25T07:57:51.139Z,101197.59
2022-12-25T08:00:29.714Z,101209.00
2022-12-25T08:03:04.696Z,101215.34
2022-12-25T08:05:40.466Z,101214.75
2022-12-25T08:08:15.027Z,101215.25
2022-12-25T08:10:49.767Z,101225.12
2022-12-25T08:13:24.581Z,101214.78
2022-12-25T08:15:59.311Z,101225.22
2022-12-25T08:18:33.978Z,101236.16
2022-12-25T08:21:11.643Z,101227.13
2022-12-25T08:23:47.631Z,101231.72
2022-12-25T08:26:23.847Z,101235.53
2022-12-25T08:28:58.993Z,101240.09
2022-12-25T08:31:37.177Z,101246.00
2022-12-25T08:34:14.063Z,101248.47
2022-12-25T08:36:49.754Z,101241.78
2022-12-25T08:39:24.658Z,101240.84
2022-12-25T08:41:59.487Z,101244.09
2022-12-25T08:44:34.105Z,101251.13
2022-12-25T08:47:08.623Z,101252.38
2022-12-25T08:49:43.528Z,101253.78
2022-12-25T08:52:19.408Z,101231.84
2022-12-25T08:54:54.140Z,101235.16
2022-12-25T08:57:28.329Z,101228.00
2022-12-25T09:00:03.118Z,101225.03
2022-12-25T09:02:37.827Z,101230.47
2022-12-25T09:05:12.438Z,101233.22
2022-12-25T09:07:48.066Z,101222.50
2022-12-25T09:10:24.213Z,101227.19
2022-12-25T09:12:58.491Z,101233.69
2022-12-25T09:15:33.466Z,101221.75
2022-12-25T09:18:08.033Z,101230.81
2022-12-25T09:20:42.984Z,101225.53
2022-12-25T09:23:18.668Z,101224.31
2022-12-25T09:25:53.517Z,101229.22
2022-12-25T09:28:27.790Z,101225.09
2022-12-25T09:31:02.496Z,101225.09
2022-12-25T09:33:36.717Z,101225.38
2022-12-25T09:36:12.381Z,101224.94
2022-12-25T09:38:48.094Z,101227.97
2022-12-25T09:41:29.849Z,101229.19
2022-12-25T09:44:08.141Z,101220.59
2022-12-25T09:46:46.074Z,101235.12
2022-12-25T09:49:25.420Z,101239.41
2022-12-25T09:52:06.660Z,101225.75
2022-12-25T09:54:50.879Z,101232.06
2022-12-25T09:57:26.934Z,101223.09
2022-12-25T10:00:01.395Z,101220.75
2022-12-25T10:03:10.411Z,101226.13
2022-12-25T10:06:12.252Z,101224.81
2022-12-25T10:09:10.295Z,101221.09
2022-12-25T10:11:56.911Z,101229.38
2022-12-25T10:14:42.249Z,101229.81
2022-12-25T10:17:32.106Z,101227.44
2022-12-25T10:20:17.169Z,101218.06
2022-12-25T10:22:55.877Z,101212.66
2022-12-25T10:25:30.170Z,101217.44
2022-12-25T10:28:14.297Z,101222.28
2022-12-25T10:30:51.668Z,101217.53
2022-12-25T10:33:26.636Z,101222.06
2022-12-25T10:36:01.165Z,101218.97
2022-12-25T10:38:36.714Z,101219.94
2022-12-25T10:41:22.823Z,101210.13
2022-12-25T10:43:59.227Z,101221.59
2022-12-25T10:46:33.585Z,101213.91
2022-12-25T10:49:16.447Z,101210.03
2022-12-25T10:51:51.857Z,101211.91
2022-12-25T10:54:29.164Z,101218.00
2022-12-25T10:57:05.370Z,101209.97
2022-12-25T10:59:45.976Z,101197.06
2022-12-25T11:02:26.313Z,101202.00
2022-12-25T11:05:03.747Z,101195.84
2022-12-25T11:07:46.868Z,101192.75
2022-12-25T11:10:24.293Z,101197.78
2022-12-25T11:12:59.403Z,101194.97
2022-12-25T11:15:39.749Z,101183.22
2022-12-25T11:18:21.668Z,101173.41
2022-12-25T11:20:58.141Z,101180.13
2022-12-25T11:23:33.859Z,101171.28
2022-12-25T11:26:09.509Z,101182.53
2022-12-25T11:28:45.852Z,101179.69
2022-12-25T11:31:24.226Z,101162.13
2022-12-25T11:34:04.682Z,101168.09
2022-12-25T11:36:45.037Z,101167.62
2022-12-25T11:39:23.349Z,101183.22
2022-12-25T11:42:03.173Z,101187.78
2022-12-25T11:44:46.384Z,101193.31
2022-12-25T11:47:34.205Z,101184.81
2022-12-25T11:50:23.594Z,101177.75
2022-12-25T11:53:01.250Z,101186.25
2022-12-25T11:55:42.186Z,101190.00
2022-12-25T11:58:21.452Z,101185.50
2022-12-25T12:00:58.538Z,101173.06
2022-12-25T12:03:38.634Z,101179.00
2022-12-25T12:06:19.252Z,101173.81
2022-12-25T12:08:59.574Z,101173.94
2022-12-25T12:11:38.034Z,101172.63
2022-12-25T12:14:24.467Z,101166.00
2022-12-25T12:16:58.747Z,101160.50
2022-12-25T12:19:35.583Z,101157.31
2022-12-25T12:22:20.006Z,101151.13
2022-12-25T12:25:01.493Z,101154.66
2022-12-25T12:27:38.821Z,101157.41
2022-12-25T12:30:26.836Z,101160.72
2022-12-25T12:33:03.084Z,101161.22
2022-12-25T12:35:41.254Z,101157.25
2022-12-25T12:38:19.009Z,101155.09
2022-12-25T12:40:56.784Z,101162.37
2022-12-25T12:43:37.871Z,101161.81
2022-12-25T12:46:26.121Z,101158.41
2022-12-25T12:49:11.532Z,101159.06
2022-12-25T12:51:47.512Z,101161.63
2022-12-25T12:54:23.826Z,101153.56
2022-12-25T12:57:00.284Z,101156.47
2022-12-25T12:59:40.202Z,101144.91
2022-12-25T13:02:38.957Z,101146.75
2022-12-25T13:05:21.606Z,101148.63
2022-12-25T13:08:08.463Z,101147.44
2022-12-25T13:10:48.297Z,101157.22
2022-12-25T13:13:28.636Z,101155.53
2022-12-25T13:16:03.154Z,101156.97
2022-12-25T13:18:41.027Z,101155.66
2022-12-25T13:21:20.766Z,101171.41
2022-12-25T13:24:01.620Z,101171.41
2022-12-25T13:26:36.489Z,101167.78
2022-12-25T13:29:23.667Z,101161.84
2022-12-25T13:31:58.849Z,101162.41
2022-12-25T13:34:37.579Z,101156.22
2022-12-25T13:37:16.399Z,101154.12
2022-12-25T13:39:54.938Z,101173.84
2022-12-25T13:42:32.061Z,101164.59
2022-12-25T13:45:19.718Z,101161.84
2022-12-25T13:47:55.853Z,101164.81
2022-12-25T13:50:33.222Z,101162.81
2022-12-25T13:53:12.683Z,101163.59
2022-12-25T13:55:52.593Z,101155.66
2022-12-25T13:58:30.035Z,101150.16
2022-12-25T14:01:05.006Z,101165.87
2022-12-25T14:03:42.978Z,101162.25
2022-12-25T14:06:20.499Z,101180.28
2022-12-25T14:08:57.169Z,101171.81
2022-12-25T14:11:33.599Z,101170.38
2022-12-25T14:14:15.972Z,101158.84
2022-12-25T14:16:53.547Z,101171.69
2022-12-25T14:19:29.738Z,101174.81
2022-12-25T14:22:10.918Z,101159.72
2022-12-25T14:24:45.750Z,101169.72
2022-12-25T14:27:23.455Z,101167.06
2022-12-25T14:30:00.270Z,101168.50
2022-12-25T14:32:43.192Z,101164.66
2022-12-25T14:35:23.318Z,101174.88
2022-12-25T14:38:01.246Z,101168.38
2022-12-25T14:40:36.189Z,101172.13
2022-12-25T14:43:25.280Z,101174.66
2022-12-25T14:46:02.125Z,101176.63
2022-12-25T14:48:36.351Z,101168.59
2022-12-25T14:51:18.497Z,101169.06
2022-12-25T14:53:56.092Z,101165.22
2022-12-25T14:56:38.163Z,101161.72
2022-12-25T14:59:20.152Z,101156.47
2022-12-25T15:01:59.276Z,101150.00
2022-12-25T15:04:33.909Z,101155.41
2022-12-25T15:07:24.803Z,101150.91
2022-12-25T15:10:27.204Z,101152.34
2022-12-25T15:12:53.849Z,101145.87
2022-12-25T15:15:30.905Z,101154.69
2022-12-25T15:18:06.256Z,101158.19
2022-12-25T15:20:40.722Z,101150.12
2022-12-25T15:23:19.670Z,101149.47
2022-12-25T15:25:54.421Z,101159.22
2022-12-25T15:28:29.043Z,101159.31
2022-12-25T15:31:04.729Z,101155.66
2022-12-25T15:33:43.950Z,101143.56
2022-12-25T15:36:18.631Z,101157.00
2022-12-25T15:38:53.946Z,101147.62
2022-12-25T15:41:48.757Z,101151.53
2022-12-25T15:44:23.842Z,101151.47
2022-12-25T15:46:59.465Z,101147.25
2022-12-25T15:49:33.991Z,101157.44
2022-12-25T15:52:09.282Z,101151.00
2022-12-25T15:54:44.137Z,101154.03
2022-12-25T15:57:21.716Z,101151.50
2022-12-25T15:59:56.182Z,101152.75
2022-12-25T16:02:32.028Z,101155.31
2022-12-25T16:05:10.508Z,101152.56
2022-12-25T16:07:44.991Z,101150.53
2022-12-25T16:10:20.762Z,101145.72
2022-12-25T16:12:54.969Z,101151.75
2022-12-25T16:15:29.613Z,101153.38
2022-12-25T16:18:05.579Z,101155.16
2022-12-25T16:20:40.155Z,101161.53
2022-12-25T16:23:14.343Z,101147.97
2022-12-25T16:25:48.977Z,101141.38
2022-12-25T16:28:23.246Z,101138.53
2022-12-25T16:30:58.749Z,101137.06
2022-12-25T16:33:34.752Z,101126.62
2022-12-25T16:36:10.142Z,101135.16
2022-12-25T16:38:44.567Z,101133.31
2022-12-25T16:41:19.099Z,101138.50
2022-12-25T16:43:53.391Z,101136.03
2022-12-25T16:46:27.856Z,101137.22
2022-12-25T16:49:03.558Z,101149.88
2022-12-25T16:51:38.289Z,101143.44
2022-12-25T16:54:12.420Z,101138.81
2022-12-25T16:56:46.904Z,101142.09
2022-12-25T16:59:21.527Z,101131.19
2022-12-25T17:01:56.186Z,101127.63
2022-12-25T17:04:31.830Z,101122.28
2022-12-25T17:07:06.367Z,101111.81
2022-12-25T17:09:44.308Z,101116.62
2022-12-25T17:12:19.187Z,101129.84
2022-12-25T17:14:53.795Z,101127.44
2022-12-25T17:17:28.411Z,101129.75
2022-12-25T17:20:04.653Z,101128.72
2022-12-25T17:22:39.423Z,101121.78
2022-12-25T17:25:13.594Z,101116.28
2022-12-25T17:27:50.748Z,101115.25
2022-12-25T17:30:25.281Z,101111.47
2022-12-25T17:32:59.770Z,101109.25
2022-12-25T17:35:38.262Z,101113.34
2022-12-25T17:38:12.824Z,101113.34
2022-12-25T17:40:46.978Z,101106.75
2022-12-25T17:43:21.452Z,101094.31
2022-12-25T17:45:55.649Z,101107.53
2022-12-25T17:48:30.243Z,101103.50
2022-12-25T17:51:07.676Z,101098.16
2022-12-25T17:53:44.203Z,101100.88
2022-12-25T17:56:19.483Z,101098.84
2022-12-25T17:58:55.820Z,101092.28
2022-12-25T18:01:30.356Z,101089.91
2022-12-25T18:04:06.327Z,101083.91
2022-12-25T18:06:41.981Z,101088.69
2022-12-25T18:09:16.628Z,101083.69
2022-12-25T18:11:50.884Z,101077.16
2022-12-25T18:14:25.469Z,101061.16
2022-12-25T18:16:59.688Z,101048.03
2022-12-25T18:19:34.411Z,101049.88
2022-12-25T18:22:10.060Z,101046.13
2022-12-25T18:24:44.813Z,101063.28
2022-12-25T18:27:19.288Z,101073.31
2022-12-25T18:29:54.044Z,101069.38
2022-12-25T18:32:28.472Z,101069.62
2022-12-25T18:35:03.053Z,101079.31
2022-12-25T18:37:40.270Z,101068.50
2022-12-25T18:40:15.535Z,101066.63
2022-12-25T18:42:52.917Z,101068.75
2022-12-25T18:45:29.809Z,101077.91
2022-12-25T18:48:06.345Z,101072.03
2022-12-25T18:50:41.698Z,101065.06
2022-12-25T18:53:17.410Z,101065.31
2022-12-25T18:55:52.146Z,101059.00
2022-12-25T18:58:28.415Z,101059.03
2022-12-25T19:01:10.591Z,101064.91
2022-12-25T19:03:45.957Z,101071.13
2022-12-25T19:06:22.265Z,101074.06
2022-12-25T19:08:59.783Z,101063.50
2022-12-25T19:11:36.820Z,101063.13
2022-12-25T19:14:14.787Z,101062.03
2022-12-25T19:16:49.440Z,101063.47
2022-12-25T19:19:24.065Z,101064.00
2022-12-25T19:21:59.820Z,101072.03
2022-12-25T19:24:37.243Z,101089.78
2022-12-25T19:27:11.949Z,101083.72
2022-12-25T19:29:46.522Z,101084.06
2022-12-25T19:32:22.088Z,101080.13
2022-12-25T19:34:56.780Z,101074.03
2022-12-25T19:37:31.294Z,101075.06
2022-12-25T19:40:08.633Z,101086.69
2022-12-25T19:42:43.532Z,101084.56
2022-12-25T19:45:17.890Z,101084.06
2022-12-25T19:47:52.989Z,101089.22
2022-12-25T19:50:28.712Z,101089.56
2022-12-25T19:53:03.967Z,101081.47
2022-12-25T19:55:40.479Z,101081.28
2022-12-25T19:58:15.876Z,101058.03
2022-12-25T20:00:58.839Z,101057.87
2022-12-25T20:03:37.528Z,101050.66
2022-12-25T20:06:26.161Z,101040.03
2022-12-25T20:09:03.000Z,101031.72
2022-12-25T20:11:39.411Z,101027.75
2022-12-25T20:14:19.683Z,101029.03
2022-12-25T20:16:54.281Z,101025.12
2022-12-25T20:19:29.040Z,101044.81
2022-12-25T20:22:03.459Z,101049.31
2022-12-25T20:24:38.344Z,101051.81
2022-12-25T20:27:14.369Z,101047.47
2022-12-25T20:29:49.425Z,101046.56
2022-12-25T20:32:23.929Z,101035.22
2022-12-25T20:34:58.903Z,101042.16
2022-12-25T20:37:33.489Z,101041.56
2022-12-25T20:40:09.534Z,101042.62
2022-12-25T20:42:46.790Z,101027.37
2022-12-25T20:45:21.232Z,101019.69
2022-12-25T20:47:55.378Z,101002.72
2022-12-25T20:50:29.995Z,100997.56
2022-12-25T20:53:05.270Z,101002.19
2022-12-25T20:55:44.840Z,101011.81
2022-12-25T20:58:20.413Z,101018.16
2022-12-25T21:00:55.016Z,101018.84
2022-12-25T21:03:29.446Z,101008.38
2022-12-25T21:06:03.997Z,101011.13
2022-12-25T21:08:39.167Z,100997.50
2022-12-25T21:11:15.641Z,100995.88
2022-12-25T21:13:51.540Z,100992.34
2022-12-25T21:16:26.881Z,100999.28
2022-12-25T21:19:01.109Z,101007.09
2022-12-25T21:21:36.577Z,100998.94
2022-12-25T21:24:11.468Z,100998.78
2022-12-25T21:26:48.134Z,101006.41
2022-12-25T21:29:25.418Z,101006.31
2022-12-25T21:32:17.806Z,100995.69
2022-12-25T21:34:52.954Z,100993.63
2022-12-25T21:37:27.738Z,100983.31
2022-12-25T21:40:02.955Z,100985.03
2022-12-25T21:42:37.373Z,100981.63
2022-12-25T21:45:12.948Z,100977.25
2022-12-25T21:48:02.737Z,100986.94
2022-12-25T21:50:56.323Z,100983.16
2022-12-25T21:53:30.756Z,100982.47
2022-12-25T21:56:05.844Z,100985.91
2022-12-25T21:58:40.834Z,100998.16
2022-12-25T22:01:16.946Z,100992.31
2022-12-25T22:03:51.809Z,100981.78
2022-12-25T22:06:43.635Z,100972.09
2022-12-25T22:09:18.833Z,100971.66
2022-12-25T22:12:10.377Z,100966.94
2022-12-25T22:14:56.293Z,100956.72
2022-12-25T22:17:52.632Z,100961.53
2022-12-25T22:20:30.214Z,100964.28
2022-12-25T22:23:05.165Z,100960.44
2022-12-25T22:25:39.660Z,100956.06
2022-12-25T22:28:13.766Z,100950.94
2022-12-25T22:30:48.527Z,100952.69
2022-12-25T22:33:25.640Z,100960.53
2022-12-25T22:36:03.284Z,100965.72
2022-12-25T22:38:37.929Z,100968.50
2022-12-25T22:41:12.368Z,100966.22
2022-12-25T22:44:16.685Z,100969.13
2022-12-25T22:46:41.012Z,100959.97
2022-12-25T22:49:17.098Z,100950.94
2022-12-25T22:51:52.428Z,100942.16
2022-12-25T22:54:29.901Z,100944.34
2022-12-25T22:57:04.979Z,100951.03
2022-12-25T22:59:39.242Z,100935.72
2022-12-25T23:02:13.775Z,100935.41
2022-12-25T23:04:49.733Z,100942.78
2022-12-25T23:07:24.200Z,100939.09
2022-12-25T23:09:59.342Z,100954.63
2022-12-25T23:12:51.425Z,100956.94
2022-12-25T23:15:27.755Z,100961.41
2022-12-25T23:18:19.735Z,100961.00
2022-12-25T23:21:18.927Z,100952.69
2022-12-25T23:24:11.159Z,100935.03
2022-12-25T23:26:45.578Z,100932.63
2022-12-25T23:29:38.482Z,100932.37
2022-12-25T23:32:14.725Z,100935.19
2022-12-25T23:34:49.684Z,100934.53
2022-12-25T23:37:25.207Z,100925.59
2022-12-25T23:39:59.827Z,100914.28
2022-12-25T23:42:34.162Z,100912.06
2022-12-25T23:45:10.633Z,100918.41
2022-12-25T23:47:44.793Z,100920.97
2022-12-25T23:50:19.229Z,100930.59
2022-12-25T23:52:54.976Z,100934.88
2022-12-25T23:55:30.070Z,100943.59
2022-12-25T23:58:04.169Z,100942.25
